createdAt,value
2019-05-25T00:02:10.340Z,100224.31
2019-05-25T00:04:37.569Z,100228.62
2019-05-25T00:07:04.778Z,100224.34
2019-05-25T00:09:31.955Z,100234.34
2019-05-25T00:11:59.472Z,100232.16
2019-05-25T00:14:26.671Z,100228.08
2019-05-25T00:16:53.862Z,100234.59
2019-05-25T00:19:21.071Z,100226.53
2019-05-25T00:21:48.816Z,100230.06
2019-05-25T00:24:16.015Z,100227.29
2019-05-25T00:26:43.253Z,100230.23
2019-05-25T00:29:10.504Z,100226.98
2019-05-25T00:31:38.109Z,100236.01
2019-05-25T00:34:05.304Z,100230.20
2019-05-25T00:36:32.488Z,100232.89
2019-05-25T00:38:59.672Z,100237.62
2019-05-25T00:41:27.330Z,100234.30
2019-05-25T00:43:54.525Z,100239.06
2019-05-25T00:46:21.760Z,100234.90
2019-05-25T00:48:49.036Z,100234.19
2019-05-25T00:51:16.532Z,100236.29
2019-05-25T00:53:43.732Z,100234.34
2019-05-25T00:56:10.934Z,100239.20
2019-05-25T00:58:38.127Z,100238.52
2019-05-25T01:01:05.862Z,100248.11
2019-05-25T01:03:33.209Z,100244.13
2019-05-25T01:06:00.450Z,100244.75
2019-05-25T01:08:27.654Z,100248.50
2019-05-25T01:10:55.370Z,100249.87
2019-05-25T01:13:22.569Z,100251.12
2019-05-25T01:15:49.764Z,100248.23
2019-05-25T01:18:16.975Z,100253.87
2019-05-25T01:20:44.654Z,100254.38
2019-05-25T01:23:11.888Z,100261.67
2019-05-25T01:25:39.083Z,100265.44
2019-05-25T01:28:06.272Z,100255.16
2019-05-25T01:30:33.855Z,100260.03
2019-05-25T01:33:01.091Z,100249.36
2019-05-25T01:35:28.302Z,100255.47
2019-05-25T01:37:55.499Z,100257.16
2019-05-25T01:40:23.101Z,100254.27
2019-05-25T01:42:50.305Z,100255.45
2019-05-25T01:45:17.629Z,100257.08
2019-05-25T01:47:44.837Z,100249.38
2019-05-25T01:50:13.511Z,100246.33
2019-05-25T01:52:40.714Z,100253.81
2019-05-25T01:55:08.467Z,100247.19
2019-05-25T01:57:35.661Z,100251.70
2019-05-25T02:00:05.002Z,100256.78
2019-05-25T02:02:32.219Z,100253.54
2019-05-25T02:04:59.436Z,100266.30
2019-05-25T02:07:26.638Z,100265.93
2019-05-25T02:09:54.252Z,100267.27
2019-05-25T02:12:21.606Z,100266.80
2019-05-25T02:14:48.814Z,100268.63
2019-05-25T02:17:16.057Z,100275.17
2019-05-25T02:19:43.570Z,100271.39
2019-05-25T02:22:10.760Z,100270.97
2019-05-25T02:24:37.969Z,100270.11
2019-05-25T02:27:05.217Z,100270.17
2019-05-25T02:29:32.834Z,100269.34
2019-05-25T02:32:00.561Z,100279.00
2019-05-25T02:34:27.754Z,100278.63
2019-05-25T02:36:54.942Z,100280.78
2019-05-25T02:39:22.530Z,100288.07
2019-05-25T02:41:49.744Z,100288.12
2019-05-25T02:44:16.947Z,100284.67
2019-05-25T02:46:44.461Z,100281.66
2019-05-25T02:49:11.683Z,100285.09
2019-05-25T02:51:38.860Z,100289.75
2019-05-25T02:54:06.095Z,100289.66
2019-05-25T02:56:33.711Z,100294.25
2019-05-25T02:59:00.934Z,100296.42
2019-05-25T03:01:28.267Z,100296.55
2019-05-25T03:03:55.458Z,100298.61
2019-05-25T03:06:23.084Z,100296.66
2019-05-25T03:08:52.077Z,100294.92
2019-05-25T03:11:20.073Z,100298.07
2019-05-25T03:13:47.775Z,100298.36
2019-05-25T03:16:15.390Z,100299.69
2019-05-25T03:18:42.639Z,100297.19
2019-05-25T03:21:09.840Z,100298.07
2019-05-25T03:23:37.125Z,100305.41
2019-05-25T03:26:04.685Z,100306.47
2019-05-25T03:28:31.942Z,100315.24
2019-05-25T03:30:59.159Z,100312.34
2019-05-25T03:33:26.777Z,100318.92
2019-05-25T03:35:54.472Z,100321.14
2019-05-25T03:38:21.726Z,100321.11
2019-05-25T03:40:48.937Z,100321.44
2019-05-25T03:43:16.131Z,100320.12
2019-05-25T03:45:44.031Z,100318.56
2019-05-25T03:48:11.243Z,100322.72
2019-05-25T03:50:38.455Z,100319.42
2019-05-25T03:53:05.698Z,100320.61
2019-05-25T03:55:33.182Z,100316.63
2019-05-25T03:58:00.369Z,100322.97
2019-05-25T04:00:32.826Z,100325.55
2019-05-25T04:03:00.002Z,100320.80
2019-05-25T04:05:27.594Z,100329.08
2019-05-25T04:07:54.826Z,100323.54
2019-05-25T04:10:22.032Z,100331.08
2019-05-25T04:12:49.221Z,100331.70
2019-05-25T04:15:16.832Z,100330.32
2019-05-25T04:17:44.032Z,100339.91
2019-05-25T04:20:11.434Z,100336.16
2019-05-25T04:22:38.685Z,100334.12
2019-05-25T04:25:06.495Z,100343.67
2019-05-25T04:27:33.670Z,100345.31
2019-05-25T04:30:00.947Z,100339.68
2019-05-25T04:32:28.167Z,100343.59
2019-05-25T04:34:56.138Z,100349.78
2019-05-25T04:37:23.348Z,100357.46
2019-05-25T04:39:50.667Z,100355.48
2019-05-25T04:42:17.851Z,100355.64
2019-05-25T04:44:45.543Z,100360.31
2019-05-25T04:47:26.077Z,100355.09
2019-05-25T04:49:41.939Z,100359.30
2019-05-25T04:52:09.176Z,100359.23
2019-05-25T04:54:36.823Z,100365.47
2019-05-25T04:57:04.625Z,100366.17
2019-05-25T04:59:31.896Z,100364.69
2019-05-25T05:01:59.098Z,100359.06
2019-05-25T05:04:26.647Z,100359.89
2019-05-25T05:06:53.849Z,100360.45
2019-05-25T05:09:21.040Z,100357.31
2019-05-25T05:11:48.236Z,100363.34
2019-05-25T05:14:15.911Z,100360.92
2019-05-25T05:16:43.099Z,100358.48
2019-05-25T05:19:10.300Z,100360.98
2019-05-25T05:21:37.498Z,100362.34
2019-05-25T05:24:06.127Z,100367.70
2019-05-25T05:26:33.333Z,100363.00
2019-05-25T05:29:00.599Z,100360.50
2019-05-25T05:31:27.808Z,100369.83
2019-05-25T05:33:55.001Z,100373.45
2019-05-25T05:36:23.379Z,100372.35
2019-05-25T05:38:52.058Z,100366.93
2019-05-25T05:41:21.035Z,100368.48
2019-05-25T05:43:49.643Z,100370.84
2019-05-25T05:46:19.351Z,100369.96
2019-05-25T05:48:49.612Z,100372.18
2019-05-25T05:51:19.497Z,100370.09
2019-05-25T05:53:48.991Z,100373.94
2019-05-25T05:56:16.193Z,100376.67
2019-05-25T05:58:43.487Z,100375.81
2019-05-25T06:01:11.063Z,100374.70
2019-05-25T06:03:38.267Z,100378.98
2019-05-25T06:06:05.487Z,100385.40
2019-05-25T06:08:32.684Z,100385.42
2019-05-25T06:11:00.298Z,100393.20
2019-05-25T06:13:27.483Z,100396.80
2019-05-25T06:15:56.074Z,100392.80
2019-05-25T06:18:23.611Z,100391.25
2019-05-25T06:20:51.579Z,100400.34
2019-05-25T06:23:18.779Z,100397.45
2019-05-25T06:25:45.961Z,100395.72
2019-05-25T06:28:13.393Z,100398.88
2019-05-25T06:30:41.015Z,100396.27
2019-05-25T06:33:08.192Z,100400.48
2019-05-25T06:35:35.408Z,100402.13
2019-05-25T06:38:03.153Z,100403.80
2019-05-25T06:40:30.814Z,100407.98
2019-05-25T06:42:58.030Z,100404.49
2019-05-25T06:45:25.228Z,100403.48
2019-05-25T06:47:52.826Z,100409.78
2019-05-25T06:50:20.255Z,100404.73
2019-05-25T06:52:47.428Z,100402.64
2019-05-25T06:55:14.620Z,100404.49
2019-05-25T06:57:43.863Z,100406.53
2019-05-25T07:00:11.865Z,100412.84
2019-05-25T07:02:39.065Z,100405.67
2019-05-25T07:05:07.719Z,100409.80
2019-05-25T07:07:35.368Z,100410.22
2019-05-25T07:10:02.695Z,100409.47
2019-05-25T07:12:29.920Z,100408.72
2019-05-25T07:14:57.121Z,100416.22
2019-05-25T07:17:24.770Z,100414.73
2019-05-25T07:19:52.086Z,100414.26
2019-05-25T07:22:19.296Z,100417.52
2019-05-25T07:24:46.488Z,100421.67
2019-05-25T07:27:14.172Z,100427.91
2019-05-25T07:29:41.380Z,100430.69
2019-05-25T07:32:08.588Z,100428.58
2019-05-25T07:34:36.179Z,100428.55
2019-05-25T07:37:03.832Z,100435.89
2019-05-25T07:39:31.469Z,100433.13
2019-05-25T07:41:58.683Z,100431.59
2019-05-25T07:44:25.924Z,100435.70
2019-05-25T07:46:53.456Z,100429.52
2019-05-25T07:49:20.717Z,100433.16
2019-05-25T07:51:47.934Z,100435.72
2019-05-25T07:54:15.128Z,100435.62
2019-05-25T07:56:42.746Z,100434.22
2019-05-25T07:59:09.957Z,100432.13
2019-05-25T08:01:37.161Z,100434.22
2019-05-25T08:04:04.377Z,100437.00
2019-05-25T08:06:31.961Z,100431.39
2019-05-25T08:08:59.173Z,100434.88
2019-05-25T08:11:26.865Z,100445.09
2019-05-25T08:13:54.065Z,100440.05
2019-05-25T08:16:21.533Z,100444.44
2019-05-25T08:18:48.751Z,100442.21
2019-05-25T08:21:15.973Z,100439.03
2019-05-25T08:23:43.185Z,100448.90
2019-05-25T08:26:10.379Z,100446.19
2019-05-25T08:28:37.601Z,100447.83
2019-05-25T08:31:04.900Z,100446.72
2019-05-25T08:33:32.541Z,100445.70
2019-05-25T08:35:59.736Z,100449.06
2019-05-25T08:38:26.921Z,100446.03
2019-05-25T08:40:54.197Z,100452.16
2019-05-25T08:43:21.721Z,100448.76
2019-05-25T08:45:48.922Z,100449.47
2019-05-25T08:48:16.141Z,100445.70
2019-05-25T08:50:43.351Z,100441.59
2019-05-25T08:53:10.841Z,100441.29
2019-05-25T08:55:38.433Z,100445.93
2019-05-25T08:58:05.642Z,100442.08
2019-05-25T09:00:32.837Z,100443.67
2019-05-25T09:03:00.462Z,100442.55
2019-05-25T09:05:27.713Z,100448.65
2019-05-25T09:07:55.011Z,100448.69
2019-05-25T09:10:22.282Z,100445.70
2019-05-25T09:12:49.869Z,100440.31
2019-05-25T09:15:17.268Z,100453.37
2019-05-25T09:17:44.568Z,100454.68
2019-05-25T09:20:12.351Z,100448.76
2019-05-25T09:22:39.878Z,100451.34
2019-05-25T09:25:08.373Z,100453.50
2019-05-25T09:27:35.566Z,100459.41
2019-05-25T09:30:03.202Z,100461.28
2019-05-25T09:32:30.438Z,100450.52
2019-05-25T09:34:57.622Z,100463.68
2019-05-25T09:37:25.233Z,100456.38
2019-05-25T09:39:52.505Z,100455.30
2019-05-25T09:42:19.781Z,100462.55
2019-05-25T09:44:46.974Z,100459.09
2019-05-25T09:47:14.682Z,100457.69
2019-05-25T09:49:41.873Z,100460.31
2019-05-25T09:52:09.101Z,100458.01
2019-05-25T09:54:36.625Z,100461.09
2019-05-25T09:57:03.918Z,100465.28
2019-05-25T09:59:31.101Z,100463.00
2019-05-25T10:01:58.788Z,100457.78
2019-05-25T10:04:25.989Z,100459.44
2019-05-25T10:06:53.197Z,100455.03
2019-05-25T10:09:20.400Z,100455.86
2019-05-25T10:11:48.013Z,100462.86
2019-05-25T10:14:15.201Z,100465.40
2019-05-25T10:16:42.412Z,100465.31
2019-05-25T10:19:09.611Z,100461.59
2019-05-25T10:21:37.193Z,100460.22
2019-05-25T10:24:04.461Z,100463.52
2019-05-25T10:26:31.662Z,100462.75
2019-05-25T10:28:58.872Z,100468.28
2019-05-25T10:31:26.429Z,100466.36
2019-05-25T10:33:53.638Z,100457.63
2019-05-25T10:36:20.835Z,100459.07
2019-05-25T10:38:48.070Z,100455.77
2019-05-25T10:41:15.682Z,100456.20
2019-05-25T10:43:43.807Z,100452.69
2019-05-25T10:46:11.054Z,100451.52
2019-05-25T10:48:38.655Z,100448.60
2019-05-25T10:51:05.846Z,100443.84
2019-05-25T10:53:33.065Z,100455.52
2019-05-25T10:56:00.522Z,100446.91
2019-05-25T10:58:27.745Z,100448.73
2019-05-25T11:00:54.947Z,100443.50
2019-05-25T11:03:22.155Z,100444.97
2019-05-25T11:05:49.629Z,100447.63
2019-05-25T11:08:17.170Z,100449.00
2019-05-25T11:10:44.398Z,100444.74
2019-05-25T11:13:11.666Z,100443.03
2019-05-25T11:15:38.865Z,100441.16
2019-05-25T11:18:06.084Z,100440.89
2019-05-25T11:20:33.350Z,100437.53
2019-05-25T11:23:01.015Z,100434.00
2019-05-25T11:25:30.890Z,100435.98
2019-05-25T11:27:59.592Z,100435.47
2019-05-25T11:30:26.841Z,100436.83
2019-05-25T11:32:54.350Z,100431.66
2019-05-25T11:35:21.753Z,100428.34
2019-05-25T11:37:48.993Z,100419.83
2019-05-25T11:40:17.047Z,100427.97
2019-05-25T11:42:44.622Z,100425.52
2019-05-25T11:45:12.220Z,100426.98
2019-05-25T11:47:41.575Z,100433.24
2019-05-25T11:50:09.675Z,100428.75
2019-05-25T11:52:36.944Z,100429.06
2019-05-25T11:55:05.046Z,100421.84
2019-05-25T11:57:32.264Z,100427.80
2019-05-25T11:59:59.483Z,100430.05
2019-05-25T12:02:26.671Z,100430.06
2019-05-25T12:04:54.255Z,100429.42
2019-05-25T12:07:21.456Z,100429.20
2019-05-25T12:09:48.623Z,100423.50
2019-05-25T12:12:15.940Z,100428.67
2019-05-25T12:14:43.455Z,100423.87
2019-05-25T12:17:10.668Z,100418.34
2019-05-25T12:19:37.882Z,100424.23
2019-05-25T12:22:05.206Z,100422.08
2019-05-25T12:24:32.892Z,100422.63
2019-05-25T12:27:00.123Z,100416.80
2019-05-25T12:29:27.353Z,100410.51
2019-05-25T12:32:03.634Z,100408.84
2019-05-25T12:34:23.658Z,100408.05
2019-05-25T12:36:50.999Z,100414.47
2019-05-25T12:39:19.624Z,100415.45
2019-05-25T12:41:47.292Z,100406.48
2019-05-25T12:44:14.484Z,100416.91
2019-05-25T12:46:42.015Z,100413.71
2019-05-25T12:49:09.708Z,100412.49
2019-05-25T12:51:36.927Z,100414.09
2019-05-25T12:54:04.124Z,100416.53
2019-05-25T12:56:31.325Z,100417.17
2019-05-25T12:58:59.254Z,100414.15
2019-05-25T13:01:26.452Z,100409.63
2019-05-25T13:03:53.643Z,100407.94
2019-05-25T13:06:20.852Z,100409.79
2019-05-25T13:08:48.331Z,100413.37
2019-05-25T13:11:15.511Z,100416.25
2019-05-25T13:13:42.756Z,100411.11
2019-05-25T13:16:10.053Z,100416.83
2019-05-25T13:18:37.555Z,100400.85
2019-05-25T13:21:04.796Z,100403.52
2019-05-25T13:23:32.014Z,100409.55
2019-05-25T13:25:59.212Z,100410.27
2019-05-25T13:28:26.884Z,100407.98
2019-05-25T13:30:54.080Z,100403.06
2019-05-25T13:33:21.287Z,100406.95
2019-05-25T13:35:48.500Z,100406.36
2019-05-25T13:38:16.004Z,100396.36
2019-05-25T13:40:43.201Z,100401.23
2019-05-25T13:43:10.498Z,100398.91
2019-05-25T13:45:37.804Z,100395.59
2019-05-25T13:48:05.644Z,100400.92
2019-05-25T13:50:32.844Z,100402.00
2019-05-25T13:53:00.069Z,100404.62
2019-05-25T13:55:27.271Z,100401.89
2019-05-25T13:57:54.937Z,100406.35
2019-05-25T14:00:22.155Z,100397.23
2019-05-25T14:02:49.356Z,100392.06
2019-05-25T14:05:17.373Z,100394.94
2019-05-25T14:07:44.577Z,100388.73
2019-05-25T14:10:12.262Z,100399.64
2019-05-25T14:12:39.516Z,100395.30
2019-05-25T14:15:07.504Z,100397.20
2019-05-25T14:17:34.754Z,100395.93
2019-05-25T14:20:01.995Z,100397.59
2019-05-25T14:22:29.191Z,100400.84
2019-05-25T14:24:56.671Z,100393.88
2019-05-25T14:27:23.920Z,100398.97
2019-05-25T14:29:51.134Z,100396.06
2019-05-25T14:32:18.340Z,100388.41
2019-05-25T14:34:46.058Z,100393.37
2019-05-25T14:37:13.253Z,100389.92
2019-05-25T14:39:40.453Z,100387.67
2019-05-25T14:42:09.771Z,100385.13
2019-05-25T14:44:37.005Z,100391.94
2019-05-25T14:47:04.336Z,100385.40
2019-05-25T14:49:32.160Z,100381.54
2019-05-25T14:51:59.811Z,100376.61
2019-05-25T14:54:27.021Z,100377.33
2019-05-25T14:56:54.571Z,100370.84
2019-05-25T14:59:21.745Z,100375.03
2019-05-25T15:02:02.135Z,100371.35
2019-05-25T15:04:18.329Z,100374.27
2019-05-25T15:06:45.520Z,100376.91
2019-05-25T15:09:12.713Z,100378.05
2019-05-25T15:11:40.248Z,100377.40
2019-05-25T15:14:07.453Z,100375.45
2019-05-25T15:16:34.881Z,100369.66
2019-05-25T15:19:02.090Z,100369.34
2019-05-25T15:21:29.732Z,100376.37
2019-05-25T15:23:56.997Z,100376.48
2019-05-25T15:26:24.218Z,100369.20
2019-05-25T15:28:51.428Z,100366.42
2019-05-25T15:31:18.734Z,100366.08
2019-05-25T15:33:46.241Z,100361.84
2019-05-25T15:36:13.490Z,100363.28
2019-05-25T15:38:41.089Z,100359.80
2019-05-25T15:41:08.333Z,100355.66
2019-05-25T15:43:35.567Z,100362.91
2019-05-25T15:46:02.791Z,100358.38
2019-05-25T15:48:30.002Z,100353.06
2019-05-25T15:50:57.309Z,100357.17
2019-05-25T15:53:24.543Z,100353.13
2019-05-25T15:55:52.309Z,100356.61
2019-05-25T15:58:19.552Z,100363.23
2019-05-25T16:00:48.513Z,100357.86
2019-05-25T16:03:16.842Z,100355.76
2019-05-25T16:05:47.460Z,100348.22
2019-05-25T16:08:13.813Z,100343.77
2019-05-25T16:10:41.025Z,100342.56
2019-05-25T16:13:08.220Z,100344.17
2019-05-25T16:15:37.370Z,100346.55
2019-05-25T16:18:04.665Z,100341.81
2019-05-25T16:20:31.877Z,100335.49
2019-05-25T16:22:59.074Z,100347.02
2019-05-25T16:25:26.299Z,100340.05
2019-05-25T16:27:53.505Z,100343.00
2019-05-25T16:30:20.804Z,100334.54
2019-05-25T16:33:10.654Z,100335.97
2019-05-25T16:35:17.514Z,100344.37
2019-05-25T16:37:45.116Z,100343.84
2019-05-25T16:40:14.014Z,100342.42
2019-05-25T16:42:41.234Z,100339.38
2019-05-25T16:45:08.963Z,100338.73
2019-05-25T16:47:36.186Z,100335.31
2019-05-25T16:50:04.278Z,100341.09
2019-05-25T16:52:31.570Z,100339.84
2019-05-25T16:54:58.853Z,100341.28
2019-05-25T16:57:26.046Z,100339.12
2019-05-25T16:59:53.520Z,100330.72
2019-05-25T17:02:20.882Z,100331.66
2019-05-25T17:04:48.081Z,100328.63
2019-05-25T17:07:15.293Z,100327.59
2019-05-25T17:09:42.485Z,100326.93
2019-05-25T17:12:09.678Z,100328.52
2019-05-25T17:14:36.898Z,100321.14
2019-05-25T17:17:04.424Z,100320.81
2019-05-25T17:19:31.637Z,100320.67
2019-05-25T17:21:58.855Z,100319.62
2019-05-25T17:24:26.143Z,100312.05
2019-05-25T17:26:53.651Z,100320.14
2019-05-25T17:29:20.862Z,100320.31
2019-05-25T17:31:48.063Z,100323.40
2019-05-25T17:34:15.275Z,100320.62
2019-05-25T17:36:43.394Z,100319.74
2019-05-25T17:39:10.618Z,100321.95
2019-05-25T17:41:37.832Z,100319.56
2019-05-25T17:44:05.050Z,100316.02
2019-05-25T17:46:32.511Z,100315.27
2019-05-25T17:48:59.693Z,100316.09
2019-05-25T17:51:27.290Z,100318.34
2019-05-25T17:53:54.605Z,100321.03
2019-05-25T17:56:21.801Z,100321.69
2019-05-25T17:58:49.015Z,100320.72
2019-05-25T18:01:16.491Z,100329.08
2019-05-25T18:03:43.733Z,100329.97
2019-05-25T18:06:10.935Z,100330.01
2019-05-25T18:08:38.232Z,100330.75
2019-05-25T18:11:05.751Z,100329.69
2019-05-25T18:13:32.963Z,100330.69
2019-05-25T18:16:00.151Z,100337.85
2019-05-25T18:18:27.352Z,100341.38
2019-05-25T18:20:54.879Z,100333.16
2019-05-25T18:23:22.071Z,100332.39
2019-05-25T18:25:49.283Z,100344.80
2019-05-25T18:28:16.459Z,100336.75
2019-05-25T18:30:43.819Z,100346.05
2019-05-25T18:33:11.055Z,100345.77
2019-05-25T18:35:38.262Z,100346.07
2019-05-25T18:38:05.871Z,100345.40
2019-05-25T18:40:33.071Z,100340.69
2019-05-25T18:43:00.287Z,100335.35
2019-05-25T18:45:27.905Z,100335.33
2019-05-25T18:47:55.387Z,100332.13
2019-05-25T18:50:22.806Z,100334.00
2019-05-25T18:52:50.132Z,100327.11
2019-05-25T18:55:18.058Z,100331.22
2019-05-25T18:57:45.668Z,100335.98
2019-05-25T19:00:15.087Z,100332.90
2019-05-25T19:02:42.308Z,100331.50
2019-05-25T19:05:10.914Z,100332.25
2019-05-25T19:07:38.128Z,100337.12
2019-05-25T19:10:05.504Z,100335.78
2019-05-25T19:12:32.712Z,100334.71
2019-05-25T19:15:00.510Z,100336.04
2019-05-25T19:17:27.720Z,100337.50
2019-05-25T19:19:54.932Z,100343.73
2019-05-25T19:22:22.120Z,100342.53
2019-05-25T19:24:49.799Z,100345.95
2019-05-25T19:27:17.011Z,100346.03
2019-05-25T19:29:44.224Z,100343.06
2019-05-25T19:32:11.418Z,100340.97
2019-05-25T19:34:38.884Z,100344.73
2019-05-25T19:37:06.284Z,100347.21
2019-05-25T19:39:33.498Z,100351.11
2019-05-25T19:42:01.176Z,100354.34
2019-05-25T19:44:28.431Z,100360.75
2019-05-25T19:46:55.612Z,100365.02
2019-05-25T19:49:22.805Z,100367.84
2019-05-25T19:51:50.024Z,100367.28
2019-05-25T19:54:17.226Z,100371.37
2019-05-25T19:56:44.530Z,100365.52
2019-05-25T19:59:12.172Z,100366.73
2019-05-25T20:01:39.425Z,100367.34
2019-05-25T20:04:06.591Z,100369.59
2019-05-25T20:06:33.797Z,100366.81
2019-05-25T20:09:01.383Z,100364.41
2019-05-25T20:11:29.981Z,100372.02
2019-05-25T20:13:57.201Z,100370.42
2019-05-25T20:16:25.210Z,100367.83
2019-05-25T20:18:53.239Z,100365.63
2019-05-25T20:21:20.572Z,100365.78
2019-05-25T20:23:47.769Z,100364.52
2019-05-25T20:26:14.968Z,100360.79
2019-05-25T20:28:42.551Z,100364.47
2019-05-25T20:31:09.796Z,100367.23
2019-05-25T20:33:37.024Z,100365.17
2019-05-25T20:36:04.238Z,100367.06
2019-05-25T20:38:31.884Z,100370.19
2019-05-25T20:40:59.090Z,100371.94
2019-05-25T20:43:26.605Z,100369.51
2019-05-25T20:45:54.108Z,100375.23
2019-05-25T20:48:21.717Z,100376.70
2019-05-25T20:50:48.920Z,100377.11
2019-05-25T20:53:16.222Z,100378.08
2019-05-25T20:55:43.434Z,100374.30
2019-05-25T20:58:11.164Z,100370.20
2019-05-25T21:00:38.365Z,100374.16
2019-05-25T21:03:06.844Z,100376.08
2019-05-25T21:05:49.185Z,100373.30
2019-05-25T21:08:04.946Z,100368.01
2019-05-25T21:10:32.141Z,100369.91
2019-05-25T21:12:59.484Z,100372.92
2019-05-25T21:15:27.180Z,100376.03
2019-05-25T21:17:54.509Z,100373.53
2019-05-25T21:20:21.881Z,100383.50
2019-05-25T21:22:49.224Z,100379.34
2019-05-25T21:25:17.244Z,100378.95
2019-05-25T21:27:44.439Z,100378.20
2019-05-25T21:30:11.749Z,100375.66
2019-05-25T21:32:38.961Z,100371.43
2019-05-25T21:35:07.841Z,100374.19
2019-05-25T21:37:35.152Z,100376.11
2019-05-25T21:40:02.355Z,100373.13
2019-05-25T21:42:29.566Z,100375.38
2019-05-25T21:44:56.769Z,100374.19
2019-05-25T21:47:24.181Z,100367.39
2019-05-25T21:49:51.711Z,100371.59
2019-05-25T21:52:18.929Z,100371.30
2019-05-25T21:54:46.315Z,100368.01
2019-05-25T21:57:13.544Z,100371.52
2019-05-25T21:59:40.824Z,100368.56
2019-05-25T22:02:08.009Z,100369.92
2019-05-25T22:04:35.214Z,100363.53
2019-05-25T22:07:03.069Z,100363.64
2019-05-25T22:09:30.241Z,100364.11
2019-05-25T22:11:57.583Z,100361.59
2019-05-25T22:14:25.441Z,100366.45
2019-05-25T22:16:53.644Z,100364.77
2019-05-25T22:19:22.153Z,100356.14
2019-05-25T22:21:49.336Z,100360.56
2019-05-25T22:24:16.533Z,100358.44
2019-05-25T22:26:44.182Z,100352.41
2019-05-25T22:29:11.380Z,100355.03
2019-05-25T22:31:38.573Z,100349.67
2019-05-25T22:34:06.065Z,100338.42
2019-05-25T22:36:40.477Z,100340.16
2019-05-25T22:39:04.334Z,100337.61
2019-05-25T22:41:31.556Z,100336.80
2019-05-25T22:43:58.764Z,100330.26
2019-05-25T22:46:26.285Z,100327.25
2019-05-25T22:48:53.517Z,100324.07
2019-05-25T22:51:20.710Z,100314.47
2019-05-25T22:53:48.276Z,100313.61
2019-05-25T22:56:15.499Z,100306.77
2019-05-25T22:58:42.702Z,100308.13
2019-05-25T23:01:09.972Z,100308.37
2019-05-25T23:03:37.675Z,100296.76
2019-05-25T23:06:04.876Z,100298.25
2019-05-25T23:08:32.045Z,100308.52
2019-05-25T23:10:59.267Z,100299.86
2019-05-25T23:13:26.865Z,100296.58
2019-05-25T23:15:54.066Z,100295.92
2019-05-25T23:18:21.315Z,100290.85
2019-05-25T23:20:48.499Z,100293.81
2019-05-25T23:23:15.984Z,100295.89
2019-05-25T23:25:43.186Z,100292.00
2019-05-25T23:28:10.390Z,100296.86
2019-05-25T23:30:37.562Z,100294.51
2019-05-25T23:33:05.143Z,100289.21
2019-05-25T23:35:32.337Z,100292.20
2019-05-25T23:38:03.319Z,100286.25
2019-05-25T23:40:28.766Z,100286.29
2019-05-25T23:42:56.383Z,100276.83
2019-05-25T23:45:23.611Z,100276.36
2019-05-25T23:47:50.815Z,100275.07
2019-05-25T23:50:18.016Z,100271.09
2019-05-25T23:52:45.222Z,100269.48
2019-05-25T23:55:12.647Z,100266.09
2019-05-25T23:57:39.938Z,100263.72
